Detall de PIREP

Printer-friendly versionPDF version

[2010/09/25 15:38:00]
Flight IATA:CT1006
Pilot Number:011
Company ICAO:CAT
Aircraft Type:B463/A
PAX:100
Departing Airport: LFMP
Destination Airport: LEAL
Alternate Airport:LEPA
Online: VATSIM
Route:BGR UN975 BCN UM985 VLC
Flight Level:FL290
No Slew and time accel
No pause
Crash detect
Detect pilot in Cockpit between each 30 and 45 minutes
15:38 Zero fuel Weight: 84500 Lbs, Fuel Weight: 11360 Lbs
15:38 VATSIM:LFMP 251500Z 31016G27KT 290V350 9999 FEW050 21/07 Q1009 NOSIG
15:38 VATSIM:LEAL 251500Z 18010KT 150V230 9999 FEW030 26/18 Q1008 NOSIG
16:03 Parking Brakes off
16:10 Take-off
16:10 Take off Weight: 95034 Lbs
16:10 Wind: 311º @ 016 Knots Heading: 325º
16:10 POS N42º 44´ 46´´ E002º 52´ 05´´
16:10 Flaps:3 at 163 Knots
16:10 Gear Up: 165 Knots
16:11 Flaps:2 at 243 Knots
16:18 Flaps:1 at 258 Knots
16:18 Flaps:0 at 258 Knots
16:25 Wind:092º@009 Knots Heading: 241º Ground Speed: 402 Knots Altitude 26679 ft
16:27 TOC
16:27 Fuel Weight: 8002 Lb
16:40 Wind:286º@042 Knots Heading: 231º Ground Speed: 400 Knots Altitude 28815 ft
16:52 TOD
16:52 Fuel Weight: 5608 Lb
16:55 Wind:009º@036 Knots Heading: 227º Ground Speed: 403 Knots Altitude 24498 ft
17:10 Wind:178º@017 Knots Heading: 206º Ground Speed: 232 Knots Altitude 6479 ft
17:11 Flaps:1 at 216 Knots
17:12 Flaps:2 at 216 Knots
17:13 Flaps:3 at 198 Knots
17:14 Gear Down: 187 Knots
17:15 Flaps:4 at 142 Knots
17:15 Flaps:5 at 133 Knots
17:17 TouchDown:Rate -142 ft/min Speed: 125 Knots
17:18 VATSIM:LEAL 251700Z 18009KT 150V230 9999 FEW030 24/19 Q1008 NOSIG
17:18 Land
17:18 Wind:179º@009 Knots
17:18 Heading: 100º
17:18 Flight Duration: 01:08
17:18 Landing Weight: 89163 Lbs
17:18 POS N38º 16´ 51´´ W000º 32´ 56´´
17:23 Parking brakes on
17:23 Block to Block Duration: 01:20
17:23 Final Fuel: 4422 Lbls
17:23 Spent Fuel: 6937 Lbls
17:23 Flight Length: 384 NM
17:23 TOD Land Length: 113 NM

Exportar CSV

Powered by Drupal - Modified by Danger4k